sensor_id;sensor_type;location;lat;lon;timestamp;pressure;altitude;pressure_sealevel;temperature;humidity
70546;BME280;58098;51.680;5.134;2023-09-30T00:02:21;102542.69;;;11.56;100.00
70546;BME280;58098;51.680;5.134;2023-09-30T00:04:46;102536.88;;;11.51;100.00
70546;BME280;58098;51.680;5.134;2023-09-30T00:07:12;102550.53;;;11.56;100.00
70546;BME280;58098;51.680;5.134;2023-09-30T00:09:37;102549.75;;;11.54;100.00
70546;BME280;58098;51.680;5.134;2023-09-30T00:12:03;102553.22;;;11.54;100.00
70546;BME280;58098;51.680;5.134;2023-09-30T00:14:28;102543.59;;;11.55;100.00
70546;BME280;58098;51.680;5.134;2023-09-30T00:16:54;102548.84;;;11.55;100.00
70546;BME280;58098;51.680;5.134;2023-09-30T00:19:20;102554.16;;;11.53;100.00
70546;BME280;58098;51.680;5.134;2023-09-30T00:21:48;102528.25;;;11.49;100.00
70546;BME280;58098;51.680;5.134;2023-09-30T00:24:13;102535.84;;;11.53;100.00
70546;BME280;58098;51.680;5.134;2023-09-30T00:26:38;102531.53;;;11.52;100.00
70546;BME280;58098;51.680;5.134;2023-09-30T00:29:04;102534.06;;;11.54;100.00
70546;BME280;58098;51.680;5.134;2023-09-30T00:31:30;102537.94;;;11.47;100.00
70546;BME280;58098;51.680;5.134;2023-09-30T00:33:56;102542.34;;;11.46;100.00
70546;BME280;58098;51.680;5.134;2023-09-30T00:36:21;102564.50;;;11.55;100.00
70546;BME280;58098;51.680;5.134;2023-09-30T00:38:47;102558.44;;;11.54;100.00
70546;BME280;58098;51.680;5.134;2023-09-30T00:41:18;102558.59;;;11.51;100.00
70546;BME280;58098;51.680;5.134;2023-09-30T00:43:46;102559.53;;;11.50;100.00
70546;BME280;58098;51.680;5.134;2023-09-30T00:46:29;102540.75;;;11.44;100.00
70546;BME280;58098;51.680;5.134;2023-09-30T00:48:57;102542.78;;;11.39;100.00
70546;BME280;58098;51.680;5.134;2023-09-30T00:51:23;102561.66;;;11.44;100.00
70546;BME280;58098;51.680;5.134;2023-09-30T00:53:53;102559.13;;;11.42;100.00
70546;BME280;58098;51.680;5.134;2023-09-30T00:56:21;102555.84;;;11.39;100.00
70546;BME280;58098;51.680;5.134;2023-09-30T00:58:48;102559.97;;;11.43;100.00
70546;BME280;58098;51.680;5.134;2023-09-30T01:01:16;102572.44;;;11.38;100.00
70546;BME280;58098;51.680;5.134;2023-09-30T01:03:42;102571.75;;;11.34;100.00
70546;BME280;58098;51.680;5.134;2023-09-30T01:06:07;102551.28;;;11.26;100.00
70546;BME280;58098;51.680;5.134;2023-09-30T01:08:33;102565.09;;;11.28;100.00
70546;BME280;58098;51.680;5.134;2023-09-30T01:10:59;102562.66;;;11.25;100.00
70546;BME280;58098;51.680;5.134;2023-09-30T01:13:35;102570.59;;;11.24;100.00
70546;BME280;58098;51.680;5.134;2023-09-30T01:16:07;102579.34;;;11.23;100.00
70546;BME280;58098;51.680;5.134;2023-09-30T01:18:35;102584.13;;;11.15;100.00
70546;BME280;58098;51.680;5.134;2023-09-30T01:21:03;102572.06;;;11.12;100.00
70546;BME280;58098;51.680;5.134;2023-09-30T01:23:33;102592.66;;;11.18;100.00
70546;BME280;58098;51.680;5.134;2023-09-30T01:26:07;102588.34;;;11.17;100.00
70546;BME280;58098;51.680;5.134;2023-09-30T01:28:34;102582.19;;;11.18;100.00
70546;BME280;58098;51.680;5.134;2023-09-30T01:30:59;102589.28;;;11.16;100.00
70546;BME280;58098;51.680;5.134;2023-09-30T01:33:25;102581.84;;;11.09;100.00
70546;BME280;58098;51.680;5.134;2023-09-30T01:35:51;102585.22;;;11.11;100.00
70546;BME280;58098;51.680;5.134;2023-09-30T01:38:16;102574.16;;;11.06;100.00
70546;BME280;58098;51.680;5.134;2023-09-30T01:40:42;102575.78;;;11.08;100.00
70546;BME280;58098;51.680;5.134;2023-09-30T01:43:07;102559.50;;;11.03;100.00
70546;BME280;58098;51.680;5.134;2023-09-30T01:45:33;102564.56;;;11.06;100.00
70546;BME280;58098;51.680;5.134;2023-09-30T01:47:58;102553.53;;;11.01;100.00
70546;BME280;58098;51.680;5.134;2023-09-30T01:50:23;102556.88;;;11.03;100.00
70546;BME280;58098;51.680;5.134;2023-09-30T01:52:49;102556.03;;;11.03;100.00
70546;BME280;58098;51.680;5.134;2023-09-30T01:55:14;102551.41;;;11.08;100.00
70546;BME280;58098;51.680;5.134;2023-09-30T01:57:39;102545.78;;;11.00;100.00
70546;BME280;58098;51.680;5.134;2023-09-30T02:00:05;102558.41;;;11.07;100.00
70546;BME280;58098;51.680;5.134;2023-09-30T02:02:34;102566.25;;;11.07;100.00
70546;BME280;58098;51.680;5.134;2023-09-30T02:05:00;102567.19;;;11.06;100.00
70546;BME280;58098;51.680;5.134;2023-09-30T02:07:26;102579.91;;;11.12;100.00
70546;BME280;58098;51.680;5.134;2023-09-30T02:09:51;102587.69;;;11.14;100.00
70546;BME280;58098;51.680;5.134;2023-09-30T02:12:16;102583.38;;;11.13;100.00
70546;BME280;58098;51.680;5.134;2023-09-30T02:14:42;102579.91;;;11.12;100.00
70546;BME280;58098;51.680;5.134;2023-09-30T02:17:07;102577.38;;;11.11;100.00
70546;BME280;58098;51.680;5.134;2023-09-30T02:19:34;102569.03;;;11.04;100.00
70546;BME280;58098;51.680;5.134;2023-09-30T02:22:00;102573.91;;;11.10;100.00
70546;BME280;58098;51.680;5.134;2023-09-30T02:24:25;102561.72;;;11.11;100.00
70546;BME280;58098;51.680;5.134;2023-09-30T02:26:50;102568.69;;;11.10;100.00
70546;BME280;58098;51.680;5.134;2023-09-30T02:29:16;102554.38;;;11.02;100.00
70546;BME280;58098;51.680;5.134;2023-09-30T02:31:41;102554.63;;;10.97;100.00
70546;BME280;58098;51.680;5.134;2023-09-30T02:34:06;102572.56;;;11.03;100.00
70546;BME280;58098;51.680;5.134;2023-09-30T02:36:33;102552.91;;;10.96;100.00
70546;BME280;58098;51.680;5.134;2023-09-30T02:38:58;102554.53;;;10.99;100.00
70546;BME280;58098;51.680;5.134;2023-09-30T02:41:26;102546.94;;;10.94;100.00
70546;BME280;58098;51.680;5.134;2023-09-30T02:43:51;102545.34;;;10.92;100.00
70546;BME280;58098;51.680;5.134;2023-09-30T02:46:16;102539.41;;;10.88;100.00
70546;BME280;58098;51.680;5.134;2023-09-30T02:48:42;102546.50;;;10.86;100.00
70546;BME280;58098;51.680;5.134;2023-09-30T02:51:11;102550.81;;;10.87;100.00
70546;BME280;58098;51.680;5.134;2023-09-30T02:53:36;102547.34;;;10.87;100.00
70546;BME280;58098;51.680;5.134;2023-09-30T02:56:02;102554.00;;;10.92;100.00
70546;BME280;58098;51.680;5.134;2023-09-30T02:58:29;102543.88;;;10.86;100.00
70546;BME280;58098;51.680;5.134;2023-09-30T03:00:54;102565.38;;;10.91;100.00
70546;BME280;58098;51.680;5.134;2023-09-30T03:03:20;102564.63;;;10.89;100.00
70546;BME280;58098;51.680;5.134;2023-09-30T03:05:45;102570.69;;;10.90;100.00
70546;BME280;58098;51.680;5.134;2023-09-30T03:08:12;102565.63;;;10.87;100.00
70546;BME280;58098;51.680;5.134;2023-09-30T03:10:37;102573.13;;;10.93;100.00
70546;BME280;58098;51.680;5.134;2023-09-30T03:13:05;102561.06;;;10.90;100.00
70546;BME280;58098;51.680;5.134;2023-09-30T03:15:31;102553.16;;;10.92;100.00
70546;BME280;58098;51.680;5.134;2023-09-30T03:17:57;102557.91;;;11.01;100.00
70546;BME280;58098;51.680;5.134;2023-09-30T03:20:22;102539.16;;;10.93;100.00
70546;BME280;58098;51.680;5.134;2023-09-30T03:22:50;102544.78;;;11.02;100.00
70546;BME280;58098;51.680;5.134;2023-09-30T03:25:17;102534.03;;;10.91;100.00
70546;BME280;58098;51.680;5.134;2023-09-30T03:27:44;102549.22;;;11.00;100.00
70546;BME280;58098;51.680;5.134;2023-09-30T03:30:12;102545.69;;;11.01;100.00
70546;BME280;58098;51.680;5.134;2023-09-30T03:32:38;102549.31;;;10.99;100.00
70546;BME280;58098;51.680;5.134;2023-09-30T03:35:07;102540.00;;;10.93;100.00
70546;BME280;58098;51.680;5.134;2023-09-30T03:37:33;102546.59;;;11.00;100.00
70546;BME280;58098;51.680;5.134;2023-09-30T03:40:00;102562.09;;;11.03;100.00
70546;BME280;58098;51.680;5.134;2023-09-30T03:42:26;102560.44;;;11.02;100.00
70546;BME280;58098;51.680;5.134;2023-09-30T03:44:51;102558.91;;;10.98;100.00
70546;BME280;58098;51.680;5.134;2023-09-30T03:47:18;102551.81;;;11.00;100.00
70546;BME280;58098;51.680;5.134;2023-09-30T03:49:43;102537.25;;;10.96;100.00
70546;BME280;58098;51.680;5.134;2023-09-30T03:52:09;102538.84;;;10.99;100.00
70546;BME280;58098;51.680;5.134;2023-09-30T03:54:36;102548.19;;;11.03;100.00
70546;BME280;58098;51.680;5.134;2023-09-30T03:57:02;102548.13;;;11.04;100.00
70546;BME280;58098;51.680;5.134;2023-09-30T03:59:29;102539.53;;;11.02;100.00
70546;BME280;58098;51.680;5.134;2023-09-30T04:01:55;102541.38;;;11.00;100.00
70546;BME280;58098;51.680;5.134;2023-09-30T04:04:22;102559.25;;;11.08;100.00
70546;BME280;58098;51.680;5.134;2023-09-30T04:06:47;102555.38;;;10.99;100.00
70546;BME280;58098;51.680;5.134;2023-09-30T04:09:13;102558.91;;;10.98;100.00
70546;BME280;58098;51.680;5.134;2023-09-30T04:11:39;102550.31;;;10.96;100.00
70546;BME280;58098;51.680;5.134;2023-09-30T04:14:06;102543.22;;;10.98;100.00
70546;BME280;58098;51.680;5.134;2023-09-30T04:16:33;102542.47;;;10.96;100.00
70546;BME280;58098;51.680;5.134;2023-09-30T04:18:58;102545.09;;;10.96;100.00
70546;BME280;58098;51.680;5.134;2023-09-30T04:21:24;102541.38;;;11.00;100.00
70546;BME280;58098;51.680;5.134;2023-09-30T04:23:49;102541.47;;;10.99;100.00
70546;BME280;58098;51.680;5.134;2023-09-30T04:26:15;102547.53;;;10.99;100.00
70546;BME280;58098;51.680;5.134;2023-09-30T04:28:40;102546.19;;;10.92;100.00
70546;BME280;58098;51.680;5.134;2023-09-30T04:31:06;102551.31;;;10.94;100.00
70546;BME280;58098;51.680;5.134;2023-09-30T04:33:32;102563.22;;;10.99;100.00
70546;BME280;58098;51.680;5.134;2023-09-30T04:36:00;102551.75;;;11.02;100.00
70546;BME280;58098;51.680;5.134;2023-09-30T04:38:25;102548.97;;;11.05;100.00
70546;BME280;58098;51.680;5.134;2023-09-30T04:40:51;102562.47;;;11.13;100.00
70546;BME280;58098;51.680;5.134;2023-09-30T04:43:17;102555.03;;;11.05;100.00
70546;BME280;58098;51.680;5.134;2023-09-30T04:45:43;102566.03;;;11.12;100.00
70546;BME280;58098;51.680;5.134;2023-09-30T04:48:08;102558.59;;;11.04;100.00
70546;BME280;58098;51.680;5.134;2023-09-30T04:50:33;102559.41;;;11.05;100.00
70546;BME280;58098;51.680;5.134;2023-09-30T04:52:59;102573.00;;;11.11;100.00
70546;BME280;58098;51.680;5.134;2023-09-30T04:55:24;102571.25;;;11.12;100.00
70546;BME280;58098;51.680;5.134;2023-09-30T04:57:51;102567.03;;;11.09;100.00
70546;BME280;58098;51.680;5.134;2023-09-30T05:00:19;102572.31;;;11.08;100.00
70546;BME280;58098;51.680;5.134;2023-09-30T05:02:50;102572.56;;;11.03;100.00
70546;BME280;58098;51.680;5.134;2023-09-30T05:05:16;102571.72;;;11.03;100.00
70546;BME280;58098;51.680;5.134;2023-09-30T05:07:41;102572.47;;;11.05;100.00
70546;BME280;58098;51.680;5.134;2023-09-30T05:10:07;102578.47;;;11.07;100.00
70546;BME280;58098;51.680;5.134;2023-09-30T05:12:37;102583.63;;;11.08;100.00
70546;BME280;58098;51.680;5.134;2023-09-30T05:15:03;102565.66;;;11.02;100.00
70546;BME280;58098;51.680;5.134;2023-09-30T05:17:29;102583.63;;;11.08;100.00
70546;BME280;58098;51.680;5.134;2023-09-30T05:19:56;102579.09;;;11.12;100.00
70546;BME280;58098;51.680;5.134;2023-09-30T05:22:22;102564.81;;;11.02;100.00
70546;BME280;58098;51.680;5.134;2023-09-30T05:24:50;102578.13;;;11.13;100.00
70546;BME280;58098;51.680;5.134;2023-09-30T05:27:17;102582.50;;;11.12;100.00
70546;BME280;58098;51.680;5.134;2023-09-30T05:29:43;102575.47;;;11.14;100.00
70546;BME280;58098;51.680;5.134;2023-09-30T05:32:08;102579.84;;;11.14;100.00
70546;BME280;58098;51.680;5.134;2023-09-30T05:34:34;102587.59;;;11.15;100.00
70546;BME280;58098;51.680;5.134;2023-09-30T05:36:59;102576.53;;;11.10;100.00
70546;BME280;58098;51.680;5.134;2023-09-30T05:39:24;102597.19;;;11.15;100.00
70546;BME280;58098;51.680;5.134;2023-09-30T05:41:50;102604.09;;;11.16;100.00
70546;BME280;58098;51.680;5.134;2023-09-30T05:44:16;102593.66;;;11.16;100.00
70546;BME280;58098;51.680;5.134;2023-09-30T05:46:41;102598.53;;;11.22;100.00
70546;BME280;58098;51.680;5.134;2023-09-30T05:49:09;102594.16;;;11.22;100.00
70546;BME280;58098;51.680;5.134;2023-09-30T05:51:41;102596.19;;;11.17;100.00
70546;BME280;58098;51.680;5.134;2023-09-30T05:54:07;102591.81;;;11.18;100.00
70546;BME280;58098;51.680;5.134;2023-09-30T05:56:36;102593.41;;;11.20;100.00
70546;BME280;58098;51.680;5.134;2023-09-30T05:59:02;102594.16;;;11.22;100.00
70546;BME280;58098;51.680;5.134;2023-09-30T06:01:28;102598.97;;;11.30;100.00
70546;BME280;58098;51.680;5.134;2023-09-30T06:03:53;102580.19;;;11.23;100.00
70546;BME280;58098;51.680;5.134;2023-09-30T06:06:19;102597.06;;;11.34;100.00
70546;BME280;58098;51.680;5.134;2023-09-30T06:08:44;102585.91;;;11.30;100.00
70546;BME280;58098;51.680;5.134;2023-09-30T06:11:17;102607.25;;;11.38;100.00
70546;BME280;58098;51.680;5.134;2023-09-30T06:13:42;102597.06;;;11.34;100.00
70546;BME280;58098;51.680;5.134;2023-09-30T06:16:08;102607.00;;;11.43;100.00
70546;BME280;58098;51.680;5.134;2023-09-30T06:18:36;102601.94;;;11.40;100.00
70546;BME280;58098;51.680;5.134;2023-09-30T06:21:01;102586.25;;;11.40;100.00
70546;BME280;58098;51.680;5.134;2023-09-30T06:23:29;102587.97;;;11.41;100.00
70546;BME280;58098;51.680;5.134;2023-09-30T06:25:55;102598.16;;;11.45;100.00
70546;BME280;58098;51.680;5.134;2023-09-30T06:28:21;102589.63;;;11.42;100.00
70546;BME280;58098;51.680;5.134;2023-09-30T06:30:53;102586.09;;;11.43;100.00
70546;BME280;58098;51.680;5.134;2023-09-30T06:33:19;102591.16;;;11.46;100.00
70546;BME280;58098;51.680;5.134;2023-09-30T06:35:46;102591.75;;;11.51;100.00
70546;BME280;58098;51.680;5.134;2023-09-30T06:38:20;102588.38;;;11.49;100.00
70546;BME280;58098;51.680;5.134;2023-09-30T06:40:46;102596.16;;;11.50;100.00
70546;BME280;58098;51.680;5.134;2023-09-30T06:43:13;102603.03;;;11.51;100.00
70546;BME280;58098;51.680;5.134;2023-09-30T06:45:43;102627.84;;;11.60;100.00
70546;BME280;58098;51.680;5.134;2023-09-30T06:48:10;102628.63;;;11.62;100.00
70546;BME280;58098;51.680;5.134;2023-09-30T06:50:48;102627.09;;;11.58;100.00
70546;BME280;58098;51.680;5.134;2023-09-30T06:53:14;102628.97;;;11.56;100.00
70546;BME280;58098;51.680;5.134;2023-09-30T06:55:41;102646.00;;;11.63;100.00
70546;BME280;58098;51.680;5.134;2023-09-30T06:58:06;102650.91;;;11.69;100.00
70546;BME280;58098;51.680;5.134;2023-09-30T07:00:40;102653.59;;;11.67;100.00
70546;BME280;58098;51.680;5.134;2023-09-30T07:03:06;102651.75;;;11.69;100.00
70546;BME280;58098;51.680;5.134;2023-09-30T07:05:31;102659.19;;;11.77;100.00
70546;BME280;58098;51.680;5.134;2023-09-30T07:07:57;102642.75;;;11.75;100.00
70546;BME280;58098;51.680;5.134;2023-09-30T07:10:22;102643.34;;;11.80;100.00
70546;BME280;58098;51.680;5.134;2023-09-30T07:12:47;102650.78;;;11.87;100.00
70546;BME280;58098;51.680;5.134;2023-09-30T07:15:13;102644.50;;;11.90;100.00
70546;BME280;58098;51.680;5.134;2023-09-30T07:17:42;102663.41;;;11.95;100.00
70546;BME280;58098;51.680;5.134;2023-09-30T07:20:08;102666.88;;;11.96;100.00
70546;BME280;58098;51.680;5.134;2023-09-30T07:22:35;102683.47;;;12.10;100.00
70546;BME280;58098;51.680;5.134;2023-09-30T07:25:00;102679.94;;;12.11;100.00
70546;BME280;58098;51.680;5.134;2023-09-30T07:27:26;102690.66;;;12.22;100.00
70546;BME280;58098;51.680;5.134;2023-09-30T07:29:51;102695.72;;;12.25;100.00
70546;BME280;58098;51.680;5.134;2023-09-30T07:32:16;102696.63;;;12.24;100.00
70546;BME280;58098;51.680;5.134;2023-09-30T07:34:42;102695.56;;;12.28;100.00
70546;BME280;58098;51.680;5.134;2023-09-30T07:37:07;102714.09;;;12.39;100.00
70546;BME280;58098;51.680;5.134;2023-09-30T07:39:33;102689.03;;;12.35;100.00
70546;BME280;58098;51.680;5.134;2023-09-30T07:42:00;102697.53;;;12.39;100.00
70546;BME280;58098;51.680;5.134;2023-09-30T07:44:26;102696.19;;;12.47;100.00
70546;BME280;58098;51.680;5.134;2023-09-30T07:46:51;102691.81;;;12.48;100.00
70546;BME280;58098;51.680;5.134;2023-09-30T07:49:17;102694.75;;;12.57;100.00
70546;BME280;58098;51.680;5.134;2023-09-30T07:51:42;102686.13;;;12.55;100.00
70546;BME280;58098;51.680;5.134;2023-09-30T07:54:07;102692.72;;;12.63;100.00
70546;BME280;58098;51.680;5.134;2023-09-30T07:56:33;102692.34;;;12.69;100.00
70546;BME280;58098;51.680;5.134;2023-09-30T07:58:59;102685.91;;;12.74;100.00
70546;BME280;58098;51.680;5.134;2023-09-30T08:01:24;102683.47;;;12.85;100.00
70546;BME280;58098;51.680;5.134;2023-09-30T08:03:50;102685.00;;;12.89;100.00
70546;BME280;58098;51.680;5.134;2023-09-30T08:06:15;102680.13;;;12.97;100.00
70546;BME280;58098;51.680;5.134;2023-09-30T08:08:41;102671.34;;;12.98;100.00
70546;BME280;58098;51.680;5.134;2023-09-30T08:11:06;102682.06;;;13.09;100.00
70546;BME280;58098;51.680;5.134;2023-09-30T08:13:32;102677.50;;;13.13;100.00
70546;BME280;58098;51.680;5.134;2023-09-30T08:16:00;102665.88;;;13.17;100.00
70546;BME280;58098;51.680;5.134;2023-09-30T08:18:26;102657.38;;;13.28;100.00
70546;BME280;58098;51.680;5.134;2023-09-30T08:20:52;102652.78;;;13.31;100.00
70546;BME280;58098;51.680;5.134;2023-09-30T08:23:17;102659.91;;;13.43;100.00
70546;BME280;58098;51.680;5.134;2023-09-30T08:25:42;102646.56;;;13.46;100.00
70546;BME280;58098;51.680;5.134;2023-09-30T08:28:08;102656.31;;;13.58;100.00
70546;BME280;58098;51.680;5.134;2023-09-30T08:30:35;102658.38;;;13.67;100.00
70546;BME280;58098;51.680;5.134;2023-09-30T08:33:00;102646.75;;;13.71;100.00
70546;BME280;58098;51.680;5.134;2023-09-30T08:35:25;102647.47;;;13.73;100.00
70546;BME280;58098;51.680;5.134;2023-09-30T08:37:51;102649.44;;;13.84;100.00
70546;BME280;58098;51.680;5.134;2023-09-30T08:40:22;102650.44;;;13.96;100.00
70546;BME280;58098;51.680;5.134;2023-09-30T08:42:52;102648.91;;;14.06;100.00
70546;BME280;58098;51.680;5.134;2023-09-30T08:45:18;102644.00;;;14.14;100.00
70546;BME280;58098;51.680;5.134;2023-09-30T08:47:45;102647.50;;;14.27;100.00
70546;BME280;58098;51.680;5.134;2023-09-30T08:50:11;102659.53;;;14.31;100.00
70546;BME280;58098;51.680;5.134;2023-09-30T08:52:41;102659.84;;;14.39;100.00
70546;BME280;58098;51.680;5.134;2023-09-30T08:55:08;102653.88;;;14.37;100.00
70546;BME280;58098;51.680;5.134;2023-09-30T08:57:37;102660.59;;;14.41;100.00
70546;BME280;58098;51.680;5.134;2023-09-30T09:00:07;102682.50;;;14.54;100.00
70546;BME280;58098;51.680;5.134;2023-09-30T09:02:36;102688.47;;;14.56;100.00
70546;BME280;58098;51.680;5.134;2023-09-30T09:05:02;102688.41;;;14.58;100.00
70546;BME280;58098;51.680;5.134;2023-09-30T09:07:28;102710.59;;;14.66;100.00
70546;BME280;58098;51.680;5.134;2023-09-30T09:10:06;102690.41;;;14.67;100.00
70546;BME280;58098;51.680;5.134;2023-09-30T09:12:34;102717.78;;;14.77;100.00
70546;BME280;58098;51.680;5.134;2023-09-30T09:14:59;102713.34;;;14.77;100.00
70546;BME280;58098;51.680;5.134;2023-09-30T09:17:39;102736.19;;;14.89;100.00
70546;BME280;58098;51.680;5.134;2023-09-30T09:20:06;102731.03;;;14.88;100.00
70546;BME280;58098;51.680;5.134;2023-09-30T09:22:41;102744.00;;;15.03;100.00
70546;BME280;58098;51.680;5.134;2023-09-30T09:25:07;102745.66;;;15.04;100.00
70546;BME280;58098;51.680;5.134;2023-09-30T09:27:34;102756.53;;;15.12;100.00
70546;BME280;58098;51.680;5.134;2023-09-30T09:33:03;102747.06;;;15.23;100.00
70546;BME280;58098;51.680;5.134;2023-09-30T09:35:33;102750.13;;;15.29;100.00
70546;BME280;58098;51.680;5.134;2023-09-30T09:40:36;102750.84;;;15.44;100.00
70546;BME280;58098;51.680;5.134;2023-09-30T09:43:02;102755.22;;;15.45;100.00
70546;BME280;58098;51.680;5.134;2023-09-30T09:45:36;102752.78;;;15.54;100.00
70546;BME280;58098;51.680;5.134;2023-09-30T09:48:03;102748.06;;;15.59;100.00
70546;BME280;58098;51.680;5.134;2023-09-30T09:50:29;102758.13;;;15.65;100.00
70546;BME280;58098;51.680;5.134;2023-09-30T09:52:58;102749.19;;;15.68;100.00
70546;BME280;58098;51.680;5.134;2023-09-30T09:55:25;102748.97;;;15.71;100.00
70546;BME280;58098;51.680;5.134;2023-09-30T09:57:53;102760.63;;;15.79;100.00
70546;BME280;58098;51.680;5.134;2023-09-30T10:00:21;102772.47;;;15.87;100.00
70546;BME280;58098;51.680;5.134;2023-09-30T10:02:48;102771.59;;;15.86;100.00
70546;BME280;58098;51.680;5.134;2023-09-30T10:05:15;102787.16;;;16.02;100.00
70546;BME280;58098;51.680;5.134;2023-09-30T10:10:22;102771.78;;;16.08;100.00
70546;BME280;58098;51.680;5.134;2023-09-30T10:12:48;102779.00;;;16.17;100.00
70546;BME280;58098;51.680;5.134;2023-09-30T10:18:05;102772.88;;;16.29;100.00
70546;BME280;58098;51.680;5.134;2023-09-30T10:20:34;102775.78;;;16.37;100.00
70546;BME280;58098;51.680;5.134;2023-09-30T10:23:28;102771.63;;;16.46;100.00
70546;BME280;58098;51.680;5.134;2023-09-30T10:26:18;102764.78;;;16.56;100.00
70546;BME280;58098;51.680;5.134;2023-09-30T10:28:46;102759.63;;;16.55;100.00
70546;BME280;58098;51.680;5.134;2023-09-30T10:31:14;102744.41;;;16.58;100.00
70546;BME280;58098;51.680;5.134;2023-09-30T10:38:56;102749.41;;;16.74;100.00
70546;BME280;58098;51.680;5.134;2023-09-30T10:44:32;102742.75;;;16.92;100.00
70546;BME280;58098;51.680;5.134;2023-09-30T10:46:58;102737.25;;;16.95;100.00
70546;BME280;58098;51.680;5.134;2023-09-30T10:51:51;102742.06;;;17.01;100.00
70546;BME280;58098;51.680;5.134;2023-09-30T10:54:24;102737.25;;;17.06;100.00
70546;BME280;58098;51.680;5.134;2023-09-30T10:56:51;102730.47;;;17.14;100.00
70546;BME280;58098;51.680;5.134;2023-09-30T10:59:25;102746.78;;;17.31;100.00
70546;BME280;58098;51.680;5.134;2023-09-30T11:01:51;102743.78;;;17.35;100.00
70546;BME280;58098;51.680;5.134;2023-09-30T11:04:19;102751.59;;;17.48;100.00
70546;BME280;58098;51.680;5.134;2023-09-30T11:06:45;102745.50;;;17.47;100.00
70546;BME280;58098;51.680;5.134;2023-09-30T11:09:16;102754.53;;;17.56;100.00
70546;BME280;58098;51.680;5.134;2023-09-30T11:11:44;102754.78;;;17.75;100.00
70546;BME280;58098;51.680;5.134;2023-09-30T11:16:47;102748.88;;;18.05;100.00
70546;BME280;58098;51.680;5.134;2023-09-30T11:19:13;102725.34;;;17.91;100.00
70546;BME280;58098;51.680;5.134;2023-09-30T11:21:39;102733.81;;;18.16;100.00
70546;BME280;58098;51.680;5.134;2023-09-30T11:24:05;102734.00;;;18.35;100.00
70546;BME280;58098;51.680;5.134;2023-09-30T11:26:32;102736.78;;;18.34;100.00
70546;BME280;58098;51.680;5.134;2023-09-30T11:29:22;102744.78;;;18.55;100.00
70546;BME280;58098;51.680;5.134;2023-09-30T11:31:49;102751.34;;;18.71;100.00
70546;BME280;58098;51.680;5.134;2023-09-30T11:34:16;102739.41;;;18.77;100.00
70546;BME280;58098;51.680;5.134;2023-09-30T11:36:49;102741.28;;;19.06;100.00
70546;BME280;58098;51.680;5.134;2023-09-30T11:39:30;102745.69;;;19.17;100.00
70546;BME280;58098;51.680;5.134;2023-09-30T11:41:56;102755.59;;;19.15;100.00
70546;BME280;58098;51.680;5.134;2023-09-30T11:44:23;102745.81;;;19.16;100.00
70546;BME280;58098;51.680;5.134;2023-09-30T11:46:56;102756.78;;;19.32;100.00
70546;BME280;58098;51.680;5.134;2023-09-30T11:51:58;102771.69;;;19.33;100.00
70546;BME280;58098;51.680;5.134;2023-09-30T11:54:38;102757.03;;;19.49;100.00
70546;BME280;58098;51.680;5.134;2023-09-30T11:57:08;102753.03;;;19.55;100.00
70546;BME280;58098;51.680;5.134;2023-09-30T11:59:39;102746.84;;;19.45;100.00
70546;BME280;58098;51.680;5.134;2023-09-30T12:02:09;102743.31;;;19.65;100.00
70546;BME280;58098;51.680;5.134;2023-09-30T12:04:35;102746.16;;;19.73;100.00
70546;BME280;58098;51.680;5.134;2023-09-30T12:07:01;102727.19;;;19.77;100.00
70546;BME280;58098;51.680;5.134;2023-09-30T12:09:27;102744.69;;;19.99;100.00
70546;BME280;58098;51.680;5.134;2023-09-30T12:11:54;102725.59;;;20.05;100.00
70546;BME280;58098;51.680;5.134;2023-09-30T12:14:20;102723.66;;;20.07;100.00
70546;BME280;58098;51.680;5.134;2023-09-30T12:16:46;102730.84;;;19.86;100.00
70546;BME280;58098;51.680;5.134;2023-09-30T12:19:22;102718.16;;;19.90;100.00
70546;BME280;58098;51.680;5.134;2023-09-30T12:21:50;102720.41;;;19.94;100.00
70546;BME280;58098;51.680;5.134;2023-09-30T12:24:19;102716.94;;;20.03;100.00
70546;BME280;58098;51.680;5.134;2023-09-30T12:26:50;102711.72;;;20.32;100.00
70546;BME280;58098;51.680;5.134;2023-09-30T12:29:17;102705.16;;;20.26;100.00
70546;BME280;58098;51.680;5.134;2023-09-30T12:31:47;102705.56;;;20.31;100.00
70546;BME280;58098;51.680;5.134;2023-09-30T12:34:13;102707.81;;;20.46;100.00
70546;BME280;58098;51.680;5.134;2023-09-30T12:36:39;102711.84;;;20.59;100.00
70546;BME280;58098;51.680;5.134;2023-09-30T12:39:05;102718.56;;;20.73;100.00
70546;BME280;58098;51.680;5.134;2023-09-30T12:41:42;102717.28;;;20.67;100.00
70546;BME280;58098;51.680;5.134;2023-09-30T12:44:09;102699.56;;;20.77;100.00
70546;BME280;58098;51.680;5.134;2023-09-30T12:46:35;102715.16;;;20.99;100.00
70546;BME280;58098;51.680;5.134;2023-09-30T12:49:05;102693.78;;;21.01;100.00
70546;BME280;58098;51.680;5.134;2023-09-30T12:51:32;102698.56;;;20.88;100.00
70546;BME280;58098;51.680;5.134;2023-09-30T12:53:58;102713.06;;;20.93;100.00
70546;BME280;58098;51.680;5.134;2023-09-30T12:56:24;102706.41;;;20.80;100.00
70546;BME280;58098;51.680;5.134;2023-09-30T12:58:50;102712.53;;;20.90;100.00
70546;BME280;58098;51.680;5.134;2023-09-30T13:01:15;102697.44;;;20.90;100.00
70546;BME280;58098;51.680;5.134;2023-09-30T13:03:44;102698.56;;;21.07;100.00
70546;BME280;58098;51.680;5.134;2023-09-30T13:06:09;102708.44;;;20.95;100.00
70546;BME280;58098;51.680;5.134;2023-09-30T13:08:35;102726.47;;;21.01;100.00